sensor_id;sensor_type;location;lat;lon;timestamp;temperature;humidity
11497;DHT22;5805;51.542;7.230;2023-07-13T00:01:12;21.10;93.40
11497;DHT22;5805;51.542;7.230;2023-07-13T00:03:37;21.10;93.40
11497;DHT22;5805;51.542;7.230;2023-07-13T00:06:03;21.10;93.40
11497;DHT22;5805;51.542;7.230;2023-07-13T00:08:31;21.10;93.20
11497;DHT22;5805;51.542;7.230;2023-07-13T00:10:56;21.00;93.30
11497;DHT22;5805;51.542;7.230;2023-07-13T00:13:22;21.00;93.30
11497;DHT22;5805;51.542;7.230;2023-07-13T00:15:48;21.00;93.10
11497;DHT22;5805;51.542;7.230;2023-07-13T00:18:15;21.00;93.10
11497;DHT22;5805;51.542;7.230;2023-07-13T00:20:41;20.90;92.90
11497;DHT22;5805;51.542;7.230;2023-07-13T00:23:07;20.90;93.10
11497;DHT22;5805;51.542;7.230;2023-07-13T00:25:32;20.90;93.00
11497;DHT22;5805;51.542;7.230;2023-07-13T00:27:58;20.80;93.20
11497;DHT22;5805;51.542;7.230;2023-07-13T00:30:24;20.80;93.40
11497;DHT22;5805;51.542;7.230;2023-07-13T00:32:50;20.80;93.10
11497;DHT22;5805;51.542;7.230;2023-07-13T00:35:17;20.80;93.00
11497;DHT22;5805;51.542;7.230;2023-07-13T00:37:43;20.70;92.60
11497;DHT22;5805;51.542;7.230;2023-07-13T00:40:10;20.70;92.80
11497;DHT22;5805;51.542;7.230;2023-07-13T00:42:36;20.70;92.70
11497;DHT22;5805;51.542;7.230;2023-07-13T00:46:06;20.70;92.90
11497;DHT22;5805;51.542;7.230;2023-07-13T00:47:53;20.60;93.10
11497;DHT22;5805;51.542;7.230;2023-07-13T00:50:21;20.60;93.00
11497;DHT22;5805;51.542;7.230;2023-07-13T00:52:50;20.60;93.20
11497;DHT22;5805;51.542;7.230;2023-07-13T00:55:17;20.50;93.40
11497;DHT22;5805;51.542;7.230;2023-07-13T00:57:44;20.40;93.50
11497;DHT22;5805;51.542;7.230;2023-07-13T01:00:11;20.40;93.60
11497;DHT22;5805;51.542;7.230;2023-07-13T01:02:39;20.40;93.90
11497;DHT22;5805;51.542;7.230;2023-07-13T01:05:09;20.40;94.00
11497;DHT22;5805;51.542;7.230;2023-07-13T01:07:36;20.40;94.20
11497;DHT22;5805;51.542;7.230;2023-07-13T01:10:02;20.30;94.50
11497;DHT22;5805;51.542;7.230;2023-07-13T01:12:28;20.30;94.60
11497;DHT22;5805;51.542;7.230;2023-07-13T01:14:57;20.30;94.70
11497;DHT22;5805;51.542;7.230;2023-07-13T01:17:23;20.30;94.60
11497;DHT22;5805;51.542;7.230;2023-07-13T01:19:49;20.20;94.60
11497;DHT22;5805;51.542;7.230;2023-07-13T01:22:18;20.20;94.70
11497;DHT22;5805;51.542;7.230;2023-07-13T01:24:46;20.10;94.90
11497;DHT22;5805;51.542;7.230;2023-07-13T01:27:13;20.10;95.50
11497;DHT22;5805;51.542;7.230;2023-07-13T01:29:41;20.10;95.20
11497;DHT22;5805;51.542;7.230;2023-07-13T01:32:08;20.10;95.30
11497;DHT22;5805;51.542;7.230;2023-07-13T01:34:34;20.00;95.40
11497;DHT22;5805;51.542;7.230;2023-07-13T01:36:59;20.00;95.40
11497;DHT22;5805;51.542;7.230;2023-07-13T01:39:26;20.00;95.60
11497;DHT22;5805;51.542;7.230;2023-07-13T01:41:52;19.90;95.70
11497;DHT22;5805;51.542;7.230;2023-07-13T01:44:18;19.90;95.80
11497;DHT22;5805;51.542;7.230;2023-07-13T01:46:43;19.80;96.00
11497;DHT22;5805;51.542;7.230;2023-07-13T01:49:09;19.80;96.20
11497;DHT22;5805;51.542;7.230;2023-07-13T01:51:35;19.80;96.20
11497;DHT22;5805;51.542;7.230;2023-07-13T01:54:00;19.80;96.30
11497;DHT22;5805;51.542;7.230;2023-07-13T01:56:28;19.80;96.40
11497;DHT22;5805;51.542;7.230;2023-07-13T01:58:53;19.70;96.70
11497;DHT22;5805;51.542;7.230;2023-07-13T02:01:19;19.70;96.60
11497;DHT22;5805;51.542;7.230;2023-07-13T02:03:45;19.70;96.70
11497;DHT22;5805;51.542;7.230;2023-07-13T02:06:10;19.70;96.60
11497;DHT22;5805;51.542;7.230;2023-07-13T02:08:37;19.70;96.50
11497;DHT22;5805;51.542;7.230;2023-07-13T02:11:03;19.70;96.70
11497;DHT22;5805;51.542;7.230;2023-07-13T02:13:30;19.60;96.80
11497;DHT22;5805;51.542;7.230;2023-07-13T02:15:56;19.60;96.80
11497;DHT22;5805;51.542;7.230;2023-07-13T02:18:21;19.60;96.80
11497;DHT22;5805;51.542;7.230;2023-07-13T02:20:47;19.60;96.70
11497;DHT22;5805;51.542;7.230;2023-07-13T02:23:13;19.60;96.90
11497;DHT22;5805;51.542;7.230;2023-07-13T02:25:39;19.60;97.00
11497;DHT22;5805;51.542;7.230;2023-07-13T02:28:04;19.60;97.20
11497;DHT22;5805;51.542;7.230;2023-07-13T02:30:31;19.50;97.10
11497;DHT22;5805;51.542;7.230;2023-07-13T02:32:57;19.50;97.10
11497;DHT22;5805;51.542;7.230;2023-07-13T02:35:23;19.50;97.20
11497;DHT22;5805;51.542;7.230;2023-07-13T02:37:49;19.50;97.40
11497;DHT22;5805;51.542;7.230;2023-07-13T02:40:15;19.40;97.50
11497;DHT22;5805;51.542;7.230;2023-07-13T02:42:40;19.40;97.70
11497;DHT22;5805;51.542;7.230;2023-07-13T02:45:07;19.40;97.90
11497;DHT22;5805;51.542;7.230;2023-07-13T02:47:35;19.40;98.10
11497;DHT22;5805;51.542;7.230;2023-07-13T02:50:01;19.30;98.30
11497;DHT22;5805;51.542;7.230;2023-07-13T02:52:27;19.30;98.50
11497;DHT22;5805;51.542;7.230;2023-07-13T02:54:53;19.20;98.80
11497;DHT22;5805;51.542;7.230;2023-07-13T02:57:19;19.20;99.00
11497;DHT22;5805;51.542;7.230;2023-07-13T02:59:44;19.20;99.30
11497;DHT22;5805;51.542;7.230;2023-07-13T03:02:10;19.20;99.20
11497;DHT22;5805;51.542;7.230;2023-07-13T03:04:37;19.10;99.90
11497;DHT22;5805;51.542;7.230;2023-07-13T03:07:03;19.20;99.60
11497;DHT22;5805;51.542;7.230;2023-07-13T03:09:30;19.20;99.50
11497;DHT22;5805;51.542;7.230;2023-07-13T03:11:56;19.20;99.40
11497;DHT22;5805;51.542;7.230;2023-07-13T03:14:22;19.20;99.30
11497;DHT22;5805;51.542;7.230;2023-07-13T03:16:48;19.20;99.50
11497;DHT22;5805;51.542;7.230;2023-07-13T03:19:14;19.10;99.50
11497;DHT22;5805;51.542;7.230;2023-07-13T03:21:41;19.10;99.70
11497;DHT22;5805;51.542;7.230;2023-07-13T03:24:07;19.10;99.80
11497;DHT22;5805;51.542;7.230;2023-07-13T03:26:33;19.10;99.90
11497;DHT22;5805;51.542;7.230;2023-07-13T03:28:58;19.00;99.90
11497;DHT22;5805;51.542;7.230;2023-07-13T03:31:26;19.10;99.90
11497;DHT22;5805;51.542;7.230;2023-07-13T03:33:52;19.00;99.90
11497;DHT22;5805;51.542;7.230;2023-07-13T03:36:20;18.90;99.90
11497;DHT22;5805;51.542;7.230;2023-07-13T03:38:48;18.90;99.90
11497;DHT22;5805;51.542;7.230;2023-07-13T03:41:15;18.90;99.90
11497;DHT22;5805;51.542;7.230;2023-07-13T03:43:40;19.00;99.90
11497;DHT22;5805;51.542;7.230;2023-07-13T03:46:06;18.90;99.90
11497;DHT22;5805;51.542;7.230;2023-07-13T03:48:32;18.90;99.90
11497;DHT22;5805;51.542;7.230;2023-07-13T03:50:57;18.90;99.90
11497;DHT22;5805;51.542;7.230;2023-07-13T03:53:23;18.90;99.90
11497;DHT22;5805;51.542;7.230;2023-07-13T03:55:50;19.00;99.90
11497;DHT22;5805;51.542;7.230;2023-07-13T03:58:29;19.00;99.90
11497;DHT22;5805;51.542;7.230;2023-07-13T04:00:55;19.00;99.90
11497;DHT22;5805;51.542;7.230;2023-07-13T04:03:21;18.90;99.90
11497;DHT22;5805;51.542;7.230;2023-07-13T04:05:47;19.00;99.90
11497;DHT22;5805;51.542;7.230;2023-07-13T04:08:12;18.90;99.90
11497;DHT22;5805;51.542;7.230;2023-07-13T04:10:38;19.00;99.90
11497;DHT22;5805;51.542;7.230;2023-07-13T04:13:05;19.10;99.90
11497;DHT22;5805;51.542;7.230;2023-07-13T04:15:32;19.20;99.90
11497;DHT22;5805;51.542;7.230;2023-07-13T04:17:58;19.30;99.90
11497;DHT22;5805;51.542;7.230;2023-07-13T04:20:24;19.30;99.90
11497;DHT22;5805;51.542;7.230;2023-07-13T04:22:50;19.40;99.90
11497;DHT22;5805;51.542;7.230;2023-07-13T04:25:16;19.40;99.90
11497;DHT22;5805;51.542;7.230;2023-07-13T04:27:41;19.40;99.90
11497;DHT22;5805;51.542;7.230;2023-07-13T04:30:09;19.40;99.90
11497;DHT22;5805;51.542;7.230;2023-07-13T04:32:35;19.40;99.90
11497;DHT22;5805;51.542;7.230;2023-07-13T04:35:01;19.30;99.90
11497;DHT22;5805;51.542;7.230;2023-07-13T04:37:27;19.40;99.90
11497;DHT22;5805;51.542;7.230;2023-07-13T04:39:53;19.40;99.90
11497;DHT22;5805;51.542;7.230;2023-07-13T04:42:18;19.50;99.90
11497;DHT22;5805;51.542;7.230;2023-07-13T04:44:47;19.50;99.90
11497;DHT22;5805;51.542;7.230;2023-07-13T04:47:14;19.70;99.90
11497;DHT22;5805;51.542;7.230;2023-07-13T04:49:40;19.70;99.90
11497;DHT22;5805;51.542;7.230;2023-07-13T04:52:07;19.80;99.90
11497;DHT22;5805;51.542;7.230;2023-07-13T04:54:33;19.80;99.90
11497;DHT22;5805;51.542;7.230;2023-07-13T04:56:58;19.80;99.90
11497;DHT22;5805;51.542;7.230;2023-07-13T04:59:24;19.90;99.90
11497;DHT22;5805;51.542;7.230;2023-07-13T05:01:50;19.90;99.90
11497;DHT22;5805;51.542;7.230;2023-07-13T05:04:17;20.00;99.90
11497;DHT22;5805;51.542;7.230;2023-07-13T05:06:43;20.10;99.90
11497;DHT22;5805;51.542;7.230;2023-07-13T05:09:08;20.20;99.90
11497;DHT22;5805;51.542;7.230;2023-07-13T05:11:34;20.20;99.90
11497;DHT22;5805;51.542;7.230;2023-07-13T05:14:00;20.30;99.90
11497;DHT22;5805;51.542;7.230;2023-07-13T05:16:25;20.30;99.90
11497;DHT22;5805;51.542;7.230;2023-07-13T05:18:51;20.30;99.90
11497;DHT22;5805;51.542;7.230;2023-07-13T05:21:18;20.30;99.90
11497;DHT22;5805;51.542;7.230;2023-07-13T05:23:44;20.30;99.90
11497;DHT22;5805;51.542;7.230;2023-07-13T05:26:10;20.30;99.90
11497;DHT22;5805;51.542;7.230;2023-07-13T05:28:36;20.40;99.90
11497;DHT22;5805;51.542;7.230;2023-07-13T05:31:02;20.50;99.90
11497;DHT22;5805;51.542;7.230;2023-07-13T05:33:28;20.60;99.90
11497;DHT22;5805;51.542;7.230;2023-07-13T05:35:53;20.70;99.90
11497;DHT22;5805;51.542;7.230;2023-07-13T05:38:21;20.70;99.70
11497;DHT22;5805;51.542;7.230;2023-07-13T05:40:47;20.70;99.90
11497;DHT22;5805;51.542;7.230;2023-07-13T05:43:13;20.90;99.70
11497;DHT22;5805;51.542;7.230;2023-07-13T05:45:39;20.90;99.30
11497;DHT22;5805;51.542;7.230;2023-07-13T05:48:06;21.00;99.50
11497;DHT22;5805;51.542;7.230;2023-07-13T05:50:31;21.20;99.30
11497;DHT22;5805;51.542;7.230;2023-07-13T05:52:57;21.30;98.60
11497;DHT22;5805;51.542;7.230;2023-07-13T05:55:24;21.30;98.30
11497;DHT22;5805;51.542;7.230;2023-07-13T05:57:50;21.30;98.60
11497;DHT22;5805;51.542;7.230;2023-07-13T06:00:16;21.30;98.90
11497;DHT22;5805;51.542;7.230;2023-07-13T06:02:42;21.40;98.80
11497;DHT22;5805;51.542;7.230;2023-07-13T06:05:08;21.50;98.60
11497;DHT22;5805;51.542;7.230;2023-07-13T06:07:34;21.70;98.40
11497;DHT22;5805;51.542;7.230;2023-07-13T06:10:00;21.80;97.80
11497;DHT22;5805;51.542;7.230;2023-07-13T06:12:27;21.80;97.90
11497;DHT22;5805;51.542;7.230;2023-07-13T06:14:53;21.80;98.00
11497;DHT22;5805;51.542;7.230;2023-07-13T06:17:18;21.70;97.50
11497;DHT22;5805;51.542;7.230;2023-07-13T06:19:44;21.70;97.60
11497;DHT22;5805;51.542;7.230;2023-07-13T06:22:10;21.60;98.10
11497;DHT22;5805;51.542;7.230;2023-07-13T06:24:36;21.80;97.90
11497;DHT22;5805;51.542;7.230;2023-07-13T06:27:01;21.80;98.20
11497;DHT22;5805;51.542;7.230;2023-07-13T06:29:28;22.00;97.60
11497;DHT22;5805;51.542;7.230;2023-07-13T06:31:54;22.30;96.80
11497;DHT22;5805;51.542;7.230;2023-07-13T06:34:20;22.50;96.10
11497;DHT22;5805;51.542;7.230;2023-07-13T06:36:45;22.50;96.30
11497;DHT22;5805;51.542;7.230;2023-07-13T06:39:11;22.70;95.60
11497;DHT22;5805;51.542;7.230;2023-07-13T06:41:37;22.60;95.20
11497;DHT22;5805;51.542;7.230;2023-07-13T06:44:03;22.60;95.50
11497;DHT22;5805;51.542;7.230;2023-07-13T06:46:30;22.60;95.70
11497;DHT22;5805;51.542;7.230;2023-07-13T06:48:56;22.50;95.80
11497;DHT22;5805;51.542;7.230;2023-07-13T06:51:22;22.50;96.10
11497;DHT22;5805;51.542;7.230;2023-07-13T06:53:47;22.40;96.10
11497;DHT22;5805;51.542;7.230;2023-07-13T06:56:13;22.30;96.40
11497;DHT22;5805;51.542;7.230;2023-07-13T06:58:39;22.30;96.90
11497;DHT22;5805;51.542;7.230;2023-07-13T07:01:05;22.30;97.20
11497;DHT22;5805;51.542;7.230;2023-07-13T07:03:32;22.40;96.90
11497;DHT22;5805;51.542;7.230;2023-07-13T07:06:00;22.60;97.00
11497;DHT22;5805;51.542;7.230;2023-07-13T07:08:26;23.00;97.50
11497;DHT22;5805;51.542;7.230;2023-07-13T07:10:52;23.80;96.50
11497;DHT22;5805;51.542;7.230;2023-07-13T07:13:17;24.70;91.70
11497;DHT22;5805;51.542;7.230;2023-07-13T07:15:43;24.90;87.10
11497;DHT22;5805;51.542;7.230;2023-07-13T07:18:09;24.80;85.80
11497;DHT22;5805;51.542;7.230;2023-07-13T07:20:36;24.70;85.50
11497;DHT22;5805;51.542;7.230;2023-07-13T07:23:02;24.50;86.20
11497;DHT22;5805;51.542;7.230;2023-07-13T07:25:27;24.30;88.10
11497;DHT22;5805;51.542;7.230;2023-07-13T07:27:53;24.10;89.40
11497;DHT22;5805;51.542;7.230;2023-07-13T07:30:19;24.00;90.30
11497;DHT22;5805;51.542;7.230;2023-07-13T07:32:44;23.90;90.80
11497;DHT22;5805;51.542;7.230;2023-07-13T07:35:10;23.90;91.00
11497;DHT22;5805;51.542;7.230;2023-07-13T07:37:37;23.90;91.40
11497;DHT22;5805;51.542;7.230;2023-07-13T07:40:03;23.90;90.80
11497;DHT22;5805;51.542;7.230;2023-07-13T07:42:29;23.90;91.20
11497;DHT22;5805;51.542;7.230;2023-07-13T07:44:55;23.90;91.30
11497;DHT22;5805;51.542;7.230;2023-07-13T07:47:20;23.90;91.30
11497;DHT22;5805;51.542;7.230;2023-07-13T07:49:46;23.80;91.20
11497;DHT22;5805;51.542;7.230;2023-07-13T07:52:12;23.80;91.50
11497;DHT22;5805;51.542;7.230;2023-07-13T07:54:39;23.70;91.30
11497;DHT22;5805;51.542;7.230;2023-07-13T07:57:05;23.60;91.60
11497;DHT22;5805;51.542;7.230;2023-07-13T07:59:31;23.50;92.00
11497;DHT22;5805;51.542;7.230;2023-07-13T08:01:57;23.50;92.50
11497;DHT22;5805;51.542;7.230;2023-07-13T08:04:22;23.50;92.20
11497;DHT22;5805;51.542;7.230;2023-07-13T08:06:48;23.50;92.50
11497;DHT22;5805;51.542;7.230;2023-07-13T08:09:14;23.50;93.10
11497;DHT22;5805;51.542;7.230;2023-07-13T08:11:41;23.60;93.00
11497;DHT22;5805;51.542;7.230;2023-07-13T08:14:06;23.60;92.70
11497;DHT22;5805;51.542;7.230;2023-07-13T08:16:32;23.80;92.70
11497;DHT22;5805;51.542;7.230;2023-07-13T08:18:58;24.00;92.40
11497;DHT22;5805;51.542;7.230;2023-07-13T08:21:23;24.20;92.50
11497;DHT22;5805;51.542;7.230;2023-07-13T08:23:49;24.50;90.90
11497;DHT22;5805;51.542;7.230;2023-07-13T08:26:15;24.70;90.30
11497;DHT22;5805;51.542;7.230;2023-07-13T08:28:42;24.90;89.10
11497;DHT22;5805;51.542;7.230;2023-07-13T08:31:08;25.00;86.20
11497;DHT22;5805;51.542;7.230;2023-07-13T08:33:35;25.10;87.50
11497;DHT22;5805;51.542;7.230;2023-07-13T08:36:01;25.30;89.40
11497;DHT22;5805;51.542;7.230;2023-07-13T08:38:26;25.90;90.00
11497;DHT22;5805;51.542;7.230;2023-07-13T08:40:53;27.10;84.70
11497;DHT22;5805;51.542;7.230;2023-07-13T08:43:24;28.80;71.70
11497;DHT22;5805;51.542;7.230;2023-07-13T08:45:56;30.90;60.00
11497;DHT22;5805;51.542;7.230;2023-07-13T08:48:26;32.00;51.40
11497;DHT22;5805;51.542;7.230;2023-07-13T08:50:59;31.40;49.80
11497;DHT22;5805;51.542;7.230;2023-07-13T08:53:32;31.50;50.00
11497;DHT22;5805;51.542;7.230;2023-07-13T08:56:02;31.40;48.00
11497;DHT22;5805;51.542;7.230;2023-07-13T08:58:29;31.40;47.50
11497;DHT22;5805;51.542;7.230;2023-07-13T09:01:02;31.50;47.20
11497;DHT22;5805;51.542;7.230;2023-07-13T09:03:37;31.80;46.10
11497;DHT22;5805;51.542;7.230;2023-07-13T09:06:04;31.60;45.30
11497;DHT22;5805;51.542;7.230;2023-07-13T09:08:41;31.10;45.80
11497;DHT22;5805;51.542;7.230;2023-07-13T09:11:20;30.20;47.00
11497;DHT22;5805;51.542;7.230;2023-07-13T09:13:55;29.60;48.40
11497;DHT22;5805;51.542;7.230;2023-07-13T09:16:24;29.10;49.60
11497;DHT22;5805;51.542;7.230;2023-07-13T09:18:53;28.60;50.80
11497;DHT22;5805;51.542;7.230;2023-07-13T09:21:23;28.40;51.40
11497;DHT22;5805;51.542;7.230;2023-07-13T09:23:50;28.00;51.70
11497;DHT22;5805;51.542;7.230;2023-07-13T09:26:20;27.70;52.70
11497;DHT22;5805;51.542;7.230;2023-07-13T09:28:49;27.70;53.40
11497;DHT22;5805;51.542;7.230;2023-07-13T09:31:19;27.50;53.40
11497;DHT22;5805;51.542;7.230;2023-07-13T09:33:47;27.30;55.10
11497;DHT22;5805;51.542;7.230;2023-07-13T09:36:22;27.40;56.10
11497;DHT22;5805;51.542;7.230;2023-07-13T09:38:51;27.40;56.30
11497;DHT22;5805;51.542;7.230;2023-07-13T09:41:23;27.40;56.60
11497;DHT22;5805;51.542;7.230;2023-07-13T09:44:02;27.30;56.40
11497;DHT22;5805;51.542;7.230;2023-07-13T09:46:31;27.10;56.90
11497;DHT22;5805;51.542;7.230;2023-07-13T09:48:58;27.00;58.30
11497;DHT22;5805;51.542;7.230;2023-07-13T09:51:24;27.00;58.70
11497;DHT22;5805;51.542;7.230;2023-07-13T09:53:50;27.00;58.80
11497;DHT22;5805;51.542;7.230;2023-07-13T09:56:20;27.00;59.50
11497;DHT22;5805;51.542;7.230;2023-07-13T09:58:46;26.90;59.50
11497;DHT22;5805;51.542;7.230;2023-07-13T10:01:11;27.00;59.80
11497;DHT22;5805;51.542;7.230;2023-07-13T10:03:37;27.00;60.00
11497;DHT22;5805;51.542;7.230;2023-07-13T10:06:13;27.00;59.60
11497;DHT22;5805;51.542;7.230;2023-07-13T10:08:39;26.80;60.40
11497;DHT22;5805;51.542;7.230;2023-07-13T10:11:09;26.80;60.50
11497;DHT22;5805;51.542;7.230;2023-07-13T10:13:40;26.60;60.40
11497;DHT22;5805;51.542;7.230;2023-07-13T10:16:07;26.60;60.80
11497;DHT22;5805;51.542;7.230;2023-07-13T10:18:39;26.60;61.20
11497;DHT22;5805;51.542;7.230;2023-07-13T10:21:13;26.70;61.50
11497;DHT22;5805;51.542;7.230;2023-07-13T10:23:39;26.80;61.60
11497;DHT22;5805;51.542;7.230;2023-07-13T10:26:12;27.20;61.40
11497;DHT22;5805;51.542;7.230;2023-07-13T10:28:40;27.40;59.90
11497;DHT22;5805;51.542;7.230;2023-07-13T10:31:12;27.40;59.10
11497;DHT22;5805;51.542;7.230;2023-07-13T10:33:38;27.30;58.90
11497;DHT22;5805;51.542;7.230;2023-07-13T10:36:15;27.30;59.40
11497;DHT22;5805;51.542;7.230;2023-07-13T10:38:43;27.30;59.90
11497;DHT22;5805;51.542;7.230;2023-07-13T10:41:13;27.30;59.40
11497;DHT22;5805;51.542;7.230;2023-07-13T10:43:42;27.20;60.00
11497;DHT22;5805;51.542;7.230;2023-07-13T10:46:12;27.10;59.90
11497;DHT22;5805;51.542;7.230;2023-07-13T10:48:40;27.10;60.10
11497;DHT22;5805;51.542;7.230;2023-07-13T10:51:08;27.20;61.00
11497;DHT22;5805;51.542;7.230;2023-07-13T10:53:37;27.30;60.00
11497;DHT22;5805;51.542;7.230;2023-07-13T10:56:04;27.30;59.40
11497;DHT22;5805;51.542;7.230;2023-07-13T10:58:33;27.20;59.60
11497;DHT22;5805;51.542;7.230;2023-07-13T11:01:08;27.00;60.20
11497;DHT22;5805;51.542;7.230;2023-07-13T11:03:37;27.00;61.40
11497;DHT22;5805;51.542;7.230;2023-07-13T11:06:11;27.00;61.40
11497;DHT22;5805;51.542;7.230;2023-07-13T11:08:52;27.00;61.70
11497;DHT22;5805;51.542;7.230;2023-07-13T11:11:36;27.00;60.90
11497;DHT22;5805;51.542;7.230;2023-07-13T11:14:03;27.00;60.40
11497;DHT22;5805;51.542;7.230;2023-07-13T11:16:38;26.90;60.80
11497;DHT22;5805;51.542;7.230;2023-07-13T11:19:41;26.90;60.40
11497;DHT22;5805;51.542;7.230;2023-07-13T11:22:16;26.80;61.10
11497;DHT22;5805;51.542;7.230;2023-07-13T11:24:52;26.80;61.20
11497;DHT22;5805;51.542;7.230;2023-07-13T11:27:35;26.70;62.50
11497;DHT22;5805;51.542;7.230;2023-07-13T11:30:13;26.50;62.80
11497;DHT22;5805;51.542;7.230;2023-07-13T11:32:43;26.40;62.70
11497;DHT22;5805;51.542;7.230;2023-07-13T11:35:13;26.20;62.80
11497;DHT22;5805;51.542;7.230;2023-07-13T11:37:40;26.20;63.70
11497;DHT22;5805;51.542;7.230;2023-07-13T11:40:14;26.30;63.70
11497;DHT22;5805;51.542;7.230;2023-07-13T11:42:40;26.40;62.00
11497;DHT22;5805;51.542;7.230;2023-07-13T11:45:19;26.30;61.70
11497;DHT22;5805;51.542;7.230;2023-07-13T11:47:45;26.30;60.80
11497;DHT22;5805;51.542;7.230;2023-07-13T11:50:18;26.30;60.90
11497;DHT22;5805;51.542;7.230;2023-07-13T11:52:44;26.40;59.70
11497;DHT22;5805;51.542;7.230;2023-07-13T11:55:16;26.30;60.60
11497;DHT22;5805;51.542;7.230;2023-07-13T11:57:47;26.30;59.60
11497;DHT22;5805;51.542;7.230;2023-07-13T12:00:15;26.20;59.30
11497;DHT22;5805;51.542;7.230;2023-07-13T12:02:45;26.20;59.90
11497;DHT22;5805;51.542;7.230;2023-07-13T12:05:13;26.20;59.30
11497;DHT22;5805;51.542;7.230;2023-07-13T12:07:40;26.20;59.70
11497;DHT22;5805;51.542;7.230;2023-07-13T12:10:19;26.10;59.70
11497;DHT22;5805;51.542;7.230;2023-07-13T12:12:51;26.00;58.90
11497;DHT22;5805;51.542;7.230;2023-07-13T12:15:17;26.00;59.40
11497;DHT22;5805;51.542;7.230;2023-07-13T12:17:43;26.00;58.50
11497;DHT22;5805;51.542;7.230;2023-07-13T12:20:20;25.90;59.40
11497;DHT22;5805;51.542;7.230;2023-07-13T12:22:46;25.90;59.00
11497;DHT22;5805;51.542;7.230;2023-07-13T12:25:12;25.90;59.40
11497;DHT22;5805;51.542;7.230;2023-07-13T12:27:40;26.00;59.80
11497;DHT22;5805;51.542;7.230;2023-07-13T12:30:26;26.10;60.20
11497;DHT22;5805;51.542;7.230;2023-07-13T12:33:06;26.30;58.30
11497;DHT22;5805;51.542;7.230;2023-07-13T12:35:40;26.60;58.60
11497;DHT22;5805;51.542;7.230;2023-07-13T12:38:08;26.80;57.50
11497;DHT22;5805;51.542;7.230;2023-07-13T12:40:37;26.90;56.50
11497;DHT22;5805;51.542;7.230;2023-07-13T12:43:04;27.00;56.70
11497;DHT22;5805;51.542;7.230;2023-07-13T12:45:31;27.20;56.20
11497;DHT22;5805;51.542;7.230;2023-07-13T12:47:58;27.30;54.80
11497;DHT22;5805;51.542;7.230;2023-07-13T12:50:29;27.40;54.40
11497;DHT22;5805;51.542;7.230;2023-07-13T12:52:59;27.30;53.40
11497;DHT22;5805;51.542;7.230;2023-07-13T12:55:27;27.30;54.20
11497;DHT22;5805;51.542;7.230;2023-07-13T12:57:54;27.30;54.00
11497;DHT22;5805;51.542;7.230;2023-07-13T13:00:25;27.30;54.40
11497;DHT22;5805;51.542;7.230;2023-07-13T13:02:53;27.30;53.60
11497;DHT22;5805;51.542;7.230;2023-07-13T13:05:20;27.20;52.70
11497;DHT22;5805;51.542;7.230;2023-07-13T13:07:45;27.10;53.00
11497;DHT22;5805;51.542;7.230;2023-07-13T13:10:12;27.00;52.80
11497;DHT22;5805;51.542;7.230;2023-07-13T13:12:38;27.00;52.90
11497;DHT22;5805;51.542;7.230;2023-07-13T13:15:04;27.10;53.20
11497;DHT22;5805;51.542;7.230;2023-07-13T13:17:31;27.20;51.90
11497;DHT22;5805;51.542;7.230;2023-07-13T13:19:57;27.20;51.90
11497;DHT22;5805;51.542;7.230;2023-07-13T13:22:23;27.00;51.80
11497;DHT22;5805;51.542;7.230;2023-07-13T13:24:49;26.80;52.30
11497;DHT22;5805;51.542;7.230;2023-07-13T13:27:16;26.40;54.80
11497;DHT22;5805;51.542;7.230;2023-07-13T13:29:42;26.00;56.80
11497;DHT22;5805;51.542;7.230;2023-07-13T13:32:12;25.50;59.30
11497;DHT22;5805;51.542;7.230;2023-07-13T13:34:39;25.00;61.70
11497;DHT22;5805;51.542;7.230;2023-07-13T13:37:15;24.70;66.40
11497;DHT22;5805;51.542;7.230;2023-07-13T13:39:43;24.40;80.60
11497;DHT22;5805;51.542;7.230;2023-07-13T13:42:09;24.10;87.00
11497;DHT22;5805;51.542;7.230;2023-07-13T13:44:35;23.50;93.80
11497;DHT22;5805;51.542;7.230;2023-07-13T13:47:01;23.50;93.60
11497;DHT22;5805;51.542;7.230;2023-07-13T13:49:28;23.30;94.90
11497;DHT22;5805;51.542;7.230;2023-07-13T13:51:56;23.10;97.20
11497;DHT22;5805;51.542;7.230;2023-07-13T13:54:23;23.00;99.60
11497;DHT22;5805;51.542;7.230;2023-07-13T13:56:51;23.00;99.90
11497;DHT22;5805;51.542;7.230;2023-07-13T13:59:17;22.90;99.90
11497;DHT22;5805;51.542;7.230;2023-07-13T14:01:44;22.80;99.90
11497;DHT22;5805;51.542;7.230;2023-07-13T14:04:15;22.90;99.70
11497;DHT22;5805;51.542;7.230;2023-07-13T14:06:41;23.00;99.70
11497;DHT22;5805;51.542;7.230;2023-07-13T14:09:10;23.10;99.50
11497;DHT22;5805;51.542;7.230;2023-07-13T14:11:36;23.10;98.30
11497;DHT22;5805;51.542;7.230;2023-07-13T14:14:02;23.20;98.50
11497;DHT22;5805;51.542;7.230;2023-07-13T14:16:29;23.30;98.70
11497;DHT22;5805;51.542;7.230;2023-07-13T14:18:56;23.40;98.60
11497;DHT22;5805;51.542;7.230;2023-07-13T14:21:22;23.60;98.40
11497;DHT22;5805;51.542;7.230;2023-07-13T14:23:48;23.80;98.00
11497;DHT22;5805;51.542;7.230;2023-07-13T14:26:18;24.00;96.40
11497;DHT22;5805;51.542;7.230;2023-07-13T14:28:46;24.00;94.80
11497;DHT22;5805;51.542;7.230;2023-07-13T14:31:13;24.10;94.20
11497;DHT22;5805;51.542;7.230;2023-07-13T14:33:39;24.10;93.60
11497;DHT22;5805;51.542;7.230;2023-07-13T14:36:27;24.00;93.50
11497;DHT22;5805;51.542;7.230;2023-07-13T14:38:53;23.90;94.40
11497;DHT22;5805;51.542;7.230;2023-07-13T14:41:20;23.90;95.20
11497;DHT22;5805;51.542;7.230;2023-07-13T14:43:46;23.80;96.40
11497;DHT22;5805;51.542;7.230;2023-07-13T14:46:21;23.60;96.80
11497;DHT22;5805;51.542;7.230;2023-07-13T14:48:49;23.70;97.00
11497;DHT22;5805;51.542;7.230;2023-07-13T14:51:15;24.00;96.80
11497;DHT22;5805;51.542;7.230;2023-07-13T14:53:40;24.20;96.70
11497;DHT22;5805;51.542;7.230;2023-07-13T14:56:10;24.20;95.20
11497;DHT22;5805;51.542;7.230;2023-07-13T14:58:37;24.20;95.30
11497;DHT22;5805;51.542;7.230;2023-07-13T15:01:03;24.20;94.70
11497;DHT22;5805;51.542;7.230;2023-07-13T15:03:29;24.30;94.10
11497;DHT22;5805;51.542;7.230;2023-07-13T15:05:55;24.40;93.90
11497;DHT22;5805;51.542;7.230;2023-07-13T15:08:20;24.50;93.40
11497;DHT22;5805;51.542;7.230;2023-07-13T15:10:46;24.60;93.30
11497;DHT22;5805;51.542;7.230;2023-07-13T15:13:16;24.60;91.80
11497;DHT22;5805;51.542;7.230;2023-07-13T15:15:45;24.70;91.40
11497;DHT22;5805;51.542;7.230;2023-07-13T15:18:13;24.60;90.90
11497;DHT22;5805;51.542;7.230;2023-07-13T15:20:39;24.60;91.00
11497;DHT22;5805;51.542;7.230;2023-07-13T15:23:05;24.50;91.40
11497;DHT22;5805;51.542;7.230;2023-07-13T15:25:32;24.40;92.20
11497;DHT22;5805;51.542;7.230;2023-07-13T15:27:59;24.20;92.60
11497;DHT22;5805;51.542;7.230;2023-07-13T15:30:27;24.20;91.40
11497;DHT22;5805;51.542;7.230;2023-07-13T15:32:56;24.10;91.20
11497;DHT22;5805;51.542;7.230;2023-07-13T15:35:25;24.00;91.90
11497;DHT22;5805;51.542;7.230;2023-07-13T15:37:52;23.90;92.90
11497;DHT22;5805;51.542;7.230;2023-07-13T15:40:18;23.80;93.20
11497;DHT22;5805;51.542;7.230;2023-07-13T15:42:44;23.80;93.60
11497;DHT22;5805;51.542;7.230;2023-07-13T15:45:18;23.90;93.80
11497;DHT22;5805;51.542;7.230;2023-07-13T15:47:44;24.00;93.70